»·PEaware :: N12SA KKNB-KLGB

N12SA :: KKNB-KLGB

FLIGHT INFORMATION

Flight Status: Arrived
Operator: Privately registered:
United States
More flights under this callsign
Pilot: Johnny M. (21174)
Aircraft: SOCATA TBM-900
(TBM9)
More flights by this aircraft type
Origin: KKNB Kanab Mun
United States
Destination: KLGB Long Beach
United States
More flights between these airports :: More routes between these airports
Route: +KACIR2 JALMA NATEE DSNEE4
File this flight plan on PilotEdge
Remarks: Alphabet Challenge ZLA
Altitude:
(Current/Filed)
20,000ft
Speed:
(Current/Filed)
290kts
Departed: 15-Apr-19 05:41 PM
Arrived: 15-Apr-19 07:17 PM
Distance/Time
Traveled:
335nm/1:36
Distance/Time
To Go:
Arrived

Flight Plot

Page will automatically refresh every two minutes.

Flight plan parsing failed; only flown route is shown


Map Options




Map Legend


Flown Route
Filed Route
Departure Airport
Arrival Airport
Navaid (VOR, NDB)
Fix

Horizontal Profiles

Position Reports

Time Latitude Longitude Heading Altitude Ground
Speed
15-Apr-19 17:33 37.010720 -112.529107 343 4871ft 0kts
15-Apr-19 17:34 37.010720 -112.529107 343 4871ft 0kts
15-Apr-19 17:35 37.010807 -112.529424 254 4871ft 5kts
15-Apr-19 17:36 37.014726 -112.529516 19 4871ft 34kts
15-Apr-19 17:37 37.018262 -112.527193 273 4871ft 0kts
15-Apr-19 17:38 37.018262 -112.527192 273 4871ft 0kts
15-Apr-19 17:39 37.017552 -112.528147 200 4871ft 36kts
15-Apr-19 17:40 36.988464 -112.538943 200 5787ft 137kts
15-Apr-19 17:41 36.952959 -112.552420 200 7924ft 136kts
15-Apr-19 17:42 36.923914 -112.527113 121 10109ft 176kts
15-Apr-19 17:43 36.903676 -112.467595 121 11908ft 191kts
15-Apr-19 17:44 36.882864 -112.408347 162 13621ft 175kts
15-Apr-19 17:45 36.857312 -112.444264 237 15180ft 162kts
15-Apr-19 17:46 36.835692 -112.495066 239 16786ft 174kts
15-Apr-19 17:47 36.812847 -112.551225 240 18568ft 186kts
15-Apr-19 17:48 36.788973 -112.610145 240 19928ft 205kts
15-Apr-19 17:49 36.760299 -112.680837 240 19922ft 245kts
15-Apr-19 17:50 36.728700 -112.758597 240 19913ft 256kts
15-Apr-19 17:51 36.696251 -112.838266 240 19910ft 259kts
15-Apr-19 17:52 36.663393 -112.918720 240 19909ft 261kts
15-Apr-19 17:53 36.630304 -112.999521 239 19909ft 262kts
15-Apr-19 17:54 36.596954 -113.080733 239 19909ft 264kts
15-Apr-19 17:55 36.563454 -113.162124 239 19908ft 264kts
15-Apr-19 17:56 36.529752 -113.243805 239 19908ft 264kts
15-Apr-19 17:57 36.496065 -113.325246 239 19892ft 265kts
15-Apr-19 17:58 36.462281 -113.406718 239 19854ft 265kts
15-Apr-19 17:59 36.428408 -113.488200 239 19816ft 265kts
15-Apr-19 18:00 36.394454 -113.569673 239 19796ft 265kts
15-Apr-19 18:01 36.360653 -113.650579 238 19788ft 265kts
15-Apr-19 18:02 36.326752 -113.731511 238 19789ft 265kts
15-Apr-19 18:03 36.292716 -113.812571 238 19788ft 264kts
15-Apr-19 18:04 36.258604 -113.893612 238 19785ft 265kts
15-Apr-19 18:05 36.224441 -113.974575 238 19779ft 265kts
15-Apr-19 18:06 36.190286 -114.055317 238 19772ft 264kts
15-Apr-19 18:07 36.156123 -114.135884 238 19768ft 264kts
15-Apr-19 18:08 36.121855 -114.216498 238 19771ft 264kts
15-Apr-19 18:09 36.087609 -114.296863 238 19767ft 264kts
15-Apr-19 18:10 36.053013 -114.377419 239 19767ft 264kts
15-Apr-19 18:11 36.019415 -114.458230 238 19767ft 264kts
15-Apr-19 18:12 35.984944 -114.538321 238 19766ft 264kts
15-Apr-19 18:13 35.950385 -114.618472 238 19765ft 264kts
15-Apr-19 18:14 35.915803 -114.698477 238 19768ft 264kts
15-Apr-19 18:15 35.881490 -114.777679 238 19774ft 264kts
15-Apr-19 18:16 35.846662 -114.857881 238 19774ft 265kts
15-Apr-19 18:17 35.811706 -114.938173 238 19773ft 265kts
15-Apr-19 18:18 35.776813 -115.018118 238 19782ft 264kts
15-Apr-19 18:19 35.742045 -115.097593 238 19787ft 262kts
15-Apr-19 18:20 35.707447 -115.176505 239 19795ft 260kts
15-Apr-19 18:21 35.673206 -115.254436 239 19798ft 258kts
15-Apr-19 18:22 35.638976 -115.332147 239 19798ft 258kts
15-Apr-19 18:23 35.598175 -115.403847 227 19797ft 256kts
15-Apr-19 18:24 35.550235 -115.468681 227 19796ft 256kts
15-Apr-19 18:25 35.502261 -115.533214 227 19795ft 256kts
15-Apr-19 18:26 35.454214 -115.597712 227 19795ft 256kts
15-Apr-19 18:27 35.406360 -115.661827 226 19799ft 256kts
15-Apr-19 18:28 35.358278 -115.726131 226 19802ft 256kts
15-Apr-19 18:29 35.309976 -115.790604 226 19806ft 256kts
15-Apr-19 18:30 35.261836 -115.854741 226 19810ft 256kts
15-Apr-19 18:31 35.213139 -115.918585 225 19815ft 256kts
15-Apr-19 18:32 35.163522 -115.981267 225 19815ft 256kts
15-Apr-19 18:33 35.113984 -116.043710 225 19814ft 256kts
15-Apr-19 18:34 35.064289 -116.106230 225 19813ft 256kts
15-Apr-19 18:35 35.014692 -116.168474 225 19817ft 257kts
15-Apr-19 18:36 34.964516 -116.231373 226 19827ft 261kts
15-Apr-19 18:37 34.913038 -116.295800 227 19827ft 268kts
15-Apr-19 18:38 34.861559 -116.360893 227 19820ft 275kts
15-Apr-19 18:39 34.808200 -116.428788 227 19807ft 278kts
15-Apr-19 18:40 34.754681 -116.496778 227 19806ft 278kts
15-Apr-19 18:41 34.701096 -116.564791 227 19808ft 278kts
15-Apr-19 18:42 34.642164 -116.624787 220 19280ft 275kts
15-Apr-19 18:43 34.583691 -116.682003 219 18288ft 273kts
15-Apr-19 18:44 34.524830 -116.739472 219 16923ft 270kts
15-Apr-19 18:45 34.469754 -116.799575 224 15481ft 264kts
15-Apr-19 18:46 34.417189 -116.860633 224 14103ft 260kts
15-Apr-19 18:47 34.365261 -116.920797 224 13154ft 256kts
15-Apr-19 18:48 34.313589 -116.980450 225 12939ft 253kts
15-Apr-19 18:49 34.262351 -117.036410 214 11232ft 250kts
15-Apr-19 18:50 34.205532 -117.077891 213 10807ft 239kts
15-Apr-19 18:51 34.144645 -117.116758 207 10802ft 253kts
15-Apr-19 18:52 34.079919 -117.151527 207 10800ft 255kts
15-Apr-19 18:53 34.014945 -117.186297 207 9193ft 251kts
15-Apr-19 18:54 33.965877 -117.239340 231 8993ft 238kts
15-Apr-19 18:56 33.921511 -117.301314 232 7990ft 238kts
15-Apr-19 18:57 33.880118 -117.359835 232 7989ft 230kts
15-Apr-19 18:58 33.838456 -117.418674 232 7991ft 230kts
15-Apr-19 18:59 33.806996 -117.484485 251 7994ft 227kts
15-Apr-19 19:00 33.785157 -117.555649 251 7879ft 219kts
15-Apr-19 19:01 33.765083 -117.621293 251 6580ft 203kts
15-Apr-19 19:02 33.746402 -117.683842 251 5983ft 191kts
15-Apr-19 19:03 33.774573 -117.712199 42 5848ft 203kts
15-Apr-19 19:04 33.813927 -117.667341 347 4828ft 193kts
15-Apr-19 19:05 33.818551 -117.719251 251 4172ft 182kts
15-Apr-19 19:06 33.802766 -117.775515 251 3985ft 168kts
15-Apr-19 19:07 33.788568 -117.828132 251 3995ft 163kts
15-Apr-19 19:08 33.773970 -117.879749 236 3992ft 163kts
15-Apr-19 19:09 33.740435 -117.914129 211 4001ft 163kts
15-Apr-19 19:10 33.701104 -117.941776 211 4000ft 163kts
15-Apr-19 19:11 33.692577 -117.981731 311 3597ft 160kts
15-Apr-19 19:12 33.715479 -118.028131 286 2155ft 177kts
15-Apr-19 19:13 33.750726 -118.070182 312 1764ft 180kts
15-Apr-19 19:14 33.781518 -118.107422 310 991ft 114kts
15-Apr-19 19:15 33.801695 -118.131878 309 369ft 97kts
15-Apr-19 19:16 33.817495 -118.151177 316 63ft 52kts
15-Apr-19 19:16 33.818542 -118.153672 282 63ft 0kts
15-Apr-19 19:18 33.815150 -118.150253 191 63ft 28kts
15-Apr-19 19:19 33.812589 -118.151788 182 63ft 0kts
15-Apr-19 19:19 33.812589 -118.151788 182 63ft 0kts
15-Apr-19 19:20 33.812589 -118.151788 182 63ft 0kts
15-Apr-19 19:22 33.812589 -118.151788 182 63ft 0kts
15-Apr-19 19:22 33.812589 -118.151788 182 63ft 0kts
15-Apr-19 19:23 33.812589 -118.151788 182 63ft 0kts
15-Apr-19 19:24 33.812589 -118.151788 182 63ft 0kts
15-Apr-19 19:25 33.812589 -118.151788 182 63ft 0kts
15-Apr-19 19:26 33.812589 -118.151788 182 63ft 0kts
15-Apr-19 19:27 33.812589 -118.151788 182 63ft 0kts
15-Apr-19 19:28 33.812589 -118.151788 182 63ft 0kts
15-Apr-19 19:29 33.812589 -118.151788 182 63ft 0kts
15-Apr-19 19:30 33.812589 -118.151788 182 63ft 0kts

Navigation Log

Ident Type
Flight plan parsing failed, navigation log unavailable